This is the latest recevied weather packets stored in our database for station/object CW79215. If no packets are shown the sender has not sent any weather packets the latest 10 day(s).
| Time | Temp. | Humidity | Pressure | Rain* | Wind** | Luminosity | Snow |
|---|---|---|---|---|---|---|---|
| 1777626429 | 21.11° C | 24% | 1028.2 hPa | - | - | - | - |
| 1777625529 | 21.11° C | 24% | 1028.2 hPa | - | - | - | - |
| 1777624629 | 20° C | 24% | 1028.5 hPa | - | - | - | - |
| 1777623729 | 20.56° C | 24% | 1028.4 hPa | - | - | - | - |
| 1777622829 | 20.56° C | 24% | 1028.4 hPa | - | - | - | - |
| 1777621929 | 20° C | 23% | 1028.4 hPa | - | - | - | - |
| 1777621029 | 18.33° C | 24% | 1028.4 hPa | - | - | - | - |
| 1777620129 | 19.44° C | 23% | 1028.4 hPa | - | - | - | - |
| 1777619228 | 17.22° C | 25% | 1028.5 hPa | - | - | - | - |
| 1777618328 | 17.22° C | 25% | 1028.4 hPa | - | - | - | - |
| 1777617449 | 16.67° C | 27% | 1028.4 hPa | - | - | - | - |
| 1777616549 | 15° C | 29% | 1028.3 hPa | - | - | - | - |
| 1777615649 | 13.89° C | 30% | 1028.4 hPa | - | - | - | - |
| 1777614749 | 10.56° C | 35% | 1028.3 hPa | - | - | - | - |
| 1777613849 | 10° C | 37% | 1028.5 hPa | - | - | - | - |
| 1777612948 | 8.89° C | 39% | 1028.6 hPa | - | - | - | - |
| 1777612048 | 7.78° C | 43% | 1028.5 hPa | - | - | - | - |
| 1777611148 | 7.22° C | 42% | 1028.5 hPa | - | - | - | - |
| 1777610248 | 7.78° C | 41% | 1028.4 hPa | - | - | - | - |
| 1777609348 | 8.33° C | 37% | 1028.2 hPa | - | - | - | - |
| 1777608448 | 8.33° C | 34% | 1028 hPa | - | - | - | - |
| 1777607548 | 9.44° C | 33% | 1027.8 hPa | - | - | - | - |
| 1777606648 | 9.44° C | 31% | 1027.8 hPa | - | - | - | - |
| 1777605748 | 11.67° C | 26% | 1027.7 hPa | - | - | - | - |
| 1777604848 | 12.78° C | 24% | 1027.7 hPa | - | - | - | - |
* Rain since midnight (hover to see other rain measurements)
** Current wind speed in m/s (hover to see current wind gust speed)